Flight Track Log - Related Links

Times and Time Zones

All times are in EDT time to prevent confusion due to time zone crossing. See the N729JB flight status page for this flight to view local times or setup timezone preferences in your user account.

Time Position Orientation Groundspeed Altitude Reporting Facility
EDT Latitude Longitude Course Direction KTS MPH feet Rate Location/Type
Fri 12:09:36 PM 42.3640 -70.9700 76° East 130 150 1,400  Level FlightAware ADS-B
Fri 12:09:51 PM 42.3660 -70.9570 78° East 148 170 1,700 1,350 Climbing FlightAware ADS-B
Fri 12:10:16 PM 42.3700 -70.9310 78° East 180 207 2,300 1,855 Climbing FlightAware ADS-B
Fri 12:10:46 PM 42.3750 -70.8940 80° East 210 242 3,400 2,400 Climbing FlightAware ADS-B
Fri 12:10:56 PM 42.3770 -70.8810 78° East 215 247 3,900 2,700 Climbing FlightAware ADS-B
Fri 12:11:26 PM 42.3840 -70.8390 77° East 243 280 5,200 2,200 Climbing FlightAware ADS-B
Fri 12:11:56 PM 42.3870 -70.7910 85° East 272 313 6,100 2,182 Climbing FlightAware ADS-B
Fri 12:12:21 PM 42.3770 -70.7500 108° East 267 307 7,200 2,850 Climbing FlightAware ADS-B
Fri 12:12:36 PM 42.3640 -70.7340 138° Southeast 254 292 8,000 3,400 Climbing FlightAware ADS-B
Fri 12:12:51 PM 42.3470 -70.7270 163° South 247 284 8,900 2,836 Climbing FlightAware ADS-B
Fri 12:13:31 PM 42.3000 -70.7250 178° South 272 313 10,600 2,259 Climbing FlightAware ADS-B
Fri 12:14:16 PM 42.2500 -70.7660 211° Southwest 300 345 12,100 2,894 Climbing FlightAware ADS-B
Fri 12:14:56 PM 42.2440 -70.8370 264° West 292 336 14,700 3,000 Climbing FlightAware ADS-B
Fri 12:15:36 PM 42.2410 -70.9090 267° West 305 351 16,100 2,471 Climbing FlightAware ADS-B
Fri 12:16:21 PM 42.2380 -70.9960 267° West 306 352 18,200 2,471 Climbing FlightAware ADS-B
Fri 12:17:01 PM 42.2350 -71.0710 267° West 316 364 19,600 2,175 Climbing FlightAware ADS-B
Fri 12:17:41 PM 42.2320 -71.1520 267° West 320 368 21,100 2,047 Climbing FlightAware ADS-B
Fri 12:18:26 PM 42.2280 -71.2480 267° West 332 382 22,500 1,733 Climbing FlightAware ADS-B
Fri 12:19:11 PM 42.2250 -71.3330 267° West 338 389 23,700 1,482 Climbing FlightAware ADS-B
Fri 12:19:51 PM 42.2210 -71.4170 266° West 349 402 24,600 1,575 Climbing FlightAware ADS-B
Fri 12:20:31 PM 42.2180 -71.5120 268° West 350 403 25,800 1,553 Climbing FlightAware ADS-B
Fri 12:21:16 PM 42.2140 -71.6130 267° West 360 414 26,800 1,412 Climbing FlightAware ADS-B
Fri 12:21:56 PM 42.2100 -71.7050 267° West 365 420 27,800 900 Climbing FlightAware ADS-B
Fri 12:22:36 PM 42.2060 -71.7970 267° West 367 422 28,000 141 Climbing FlightAware ADS-B
Fri 12:23:21 PM 42.2010 -71.9010 266° West 390 449 28,000  Level FlightAware ADS-B
Fri 12:24:01 PM 42.1960 -72.0040 266° West 408 470 28,000  Level FlightAware ADS-B
Fri 12:24:46 PM 42.1910 -72.1150 267° West 402 463 28,000  Level FlightAware ADS-B
Fri 12:25:21 PM 42.1870 -72.2010 266° West 403 464 28,000  Level FlightAware ADS-B
Fri 12:26:11 PM 42.1810 -72.3280 266° West 404 465 28,000  Level FlightAware ADS-B
Fri 12:26:51 PM 42.1760 -72.4300 266° West 400 460 28,000  Level FlightAware ADS-B
Fri 12:27:36 PM 42.1710 -72.5390 266° West 396 456 28,000  Level FlightAware ADS-B
Fri 12:28:16 PM 42.1600 -72.6360 261° West 391 450 28,000  Level FlightAware ADS-B
Fri 12:28:56 PM 42.1360 -72.7290 251° West 390 449 28,000  Level FlightAware ADS-B
Fri 12:29:41 PM 42.0970 -72.8250 241° Southwest 392 451 28,000  Level FlightAware ADS-B
Fri 12:30:21 PM 42.0510 -72.9000 230° Southwest 394 453 28,000  Level FlightAware ADS-B
Fri 12:31:01 PM 42.0010 -72.9750 228° Southwest 394 453 28,000  Level FlightAware ADS-B
Fri 12:31:46 PM 41.9500 -73.0500 228° Southwest 394 453 28,000  Level FlightAware ADS-B
Fri 12:32:26 PM 41.9000 -73.1270 229° Southwest 395 455 28,000  Level FlightAware ADS-B
Fri 12:32:34 PM 41.8864 -73.1465 227° Southwest 395 455 28,000  Level FlightAware ADS-B
Fri 12:33:05 PM 41.8497 -73.2020 228° Southwest 395 455 28,000  Level FlightAware ADS-B
Fri 12:33:37 PM 41.8100 -73.2617 228° Southwest 396 456 28,000  Level FlightAware ADS-B
Fri 12:34:10 PM 41.7708 -73.3204 228° Southwest 394 453 28,000  Level FlightAware ADS-B
Fri 12:34:40 PM 41.7340 -73.3754 228° Southwest 393 452 28,000  Level FlightAware ADS-B
Fri 12:35:15 PM 41.6917 -73.4386 228° Southwest 392 451 28,000  Level FlightAware ADS-B
Fri 12:35:47 PM 41.6534 -73.4958 228° Southwest 391 450 28,000  Level FlightAware ADS-B
Fri 12:36:28 PM 41.6040 -73.5691 228° Southwest 391 450 28,000  Level FlightAware ADS-B
Fri 12:37:04 PM 41.5598 -73.6348 228° Southwest 391 450 28,000  Level FlightAware ADS-B
Fri 12:37:36 PM 41.5213 -73.6919 228° Southwest 389 448 28,000  Level FlightAware ADS-B
Fri 12:38:06 PM 41.4852 -73.7452 228° Southwest 389 448 28,000  Level FlightAware ADS-B
Fri 12:38:38 PM 41.4469 -73.8017 228° Southwest 390 449 28,000  Level FlightAware ADS-B
Fri 12:39:12 PM 41.4060 -73.8621 228° Southwest 394 453 28,000  Level FlightAware ADS-B
Fri 12:39:42 PM 41.3687 -73.9171 228° Southwest 398 458 28,000  Level FlightAware ADS-B
Fri 12:40:14 PM 41.3296 -73.9740 228° Southwest 399 459 28,000 97 Level FlightAware ADS-B
Fri 12:40:44 PM 41.2921 -74.0291 228° Southwest 398 458 28,100 98 Climbing FlightAware ADS-B
Fri 12:41:15 PM 41.2535 -74.0856 228° Southwest 396 456 28,100 -150 Level FlightAware ADS-B
Fri 12:41:24 PM 41.2425 -74.1017 228° Southwest 396 456 28,000 -200 Descending FlightAware ADS-B
Fri 12:41:45 PM 41.2165 -74.1397 228° Southwest 396 456 28,000  Level FlightAware ADS-B
Fri 12:42:23 PM 41.1699 -74.2075 228° Southwest 397 457 28,000  Level FlightAware ADS-B
Fri 12:42:31 PM 41.1602 -74.2217 228° Southwest 396 456 28,000  Level FlightAware ADS-B
Fri 12:43:00 PM 41.1242 -74.2739 228° Southwest 397 457 28,000  Level FlightAware ADS-B
Fri 12:43:31 PM 41.0865 -74.3287 228° Southwest 396 456 28,000  Level FlightAware ADS-B
Fri 12:44:01 PM 41.0494 -74.3824 228° Southwest 396 456 28,000  Level FlightAware ADS-B
Fri 12:44:32 PM 41.0101 -74.4391 227° Southwest 396 456 28,000  Level FlightAware ADS-B
Fri 12:45:02 PM 40.9731 -74.4925 227° Southwest 396 456 28,000  Level FlightAware ADS-B
Fri 12:45:33 PM 40.9350 -74.5473 227° Southwest 398 458 28,000  Level FlightAware ADS-B
Fri 12:45:54 PM 40.9099 -74.5863 230° Southwest 398 458 28,000  Level FlightAware ADS-B
Fri 12:46:20 PM 40.8828 -74.6378 235° Southwest 399 459 28,000  Level FlightAware ADS-B
Fri 12:46:50 PM 40.8545 -74.7011 239° Southwest 397 457 28,000  Level FlightAware ADS-B
Fri 12:47:21 PM 40.8265 -74.7641 240° Southwest 396 456 28,000  Level FlightAware ADS-B
Fri 12:47:51 PM 40.7979 -74.8277 239° Southwest 395 455 28,000  Level FlightAware ADS-B
Fri 12:48:22 PM 40.7688 -74.8919 239° Southwest 396 456 28,000  Level FlightAware ADS-B
Fri 12:48:52 PM 40.7405 -74.9543 239° Southwest 396 456 28,000  Level FlightAware ADS-B
Fri 12:49:23 PM 40.7120 -75.0169 239° Southwest 396 456 28,000  Level FlightAware ADS-B
Fri 12:49:57 PM 40.6798 -75.0875 239° Southwest 397 457 28,000  Level FlightAware ADS-B
Fri 12:50:27 PM 40.6512 -75.1503 239° Southwest 397 457 28,000 -581 Level FlightAware ADS-B
Fri 12:50:59 PM 40.6218 -75.2145 239° Southwest 383 441 27,400 -1,258 Descending FlightAware ADS-B
Fri 12:51:29 PM 40.5946 -75.2736 239° Southwest 367 422 26,700 -1,475 Descending FlightAware ADS-B
Fri 12:52:00 PM 40.5677 -75.3320 239° Southwest 354 407 25,900 -1,452 Descending FlightAware ADS-B
Fri 12:52:31 PM 40.5422 -75.3876 239° Southwest 343 395 25,200 -1,355 Descending FlightAware ADS-B
Fri 12:53:02 PM 40.5168 -75.4426 239° Southwest 339 390 24,500 -1,452 Descending FlightAware ADS-B
Fri 12:53:33 PM 40.4920 -75.4962 239° Southwest 336 387 23,700 -1,500 Descending FlightAware ADS-B
Fri 12:54:06 PM 40.4656 -75.5533 239° Southwest 335 386 22,900 -1,477 Descending FlightAware ADS-B
Fri 12:54:38 PM 40.4400 -75.6087 239° Southwest 330 380 22,100 -1,429 Descending FlightAware ADS-B
Fri 12:55:09 PM 40.4158 -75.6607 239° Southwest 327 376 21,400 -1,475 Descending FlightAware ADS-B
Fri 12:55:39 PM 40.3918 -75.7120 238° Southwest 322 371 20,600 -1,313 Descending FlightAware ADS-B
Fri 12:56:13 PM 40.3661 -75.7674 239° Southwest 319 367 20,000 -554 Descending FlightAware ADS-B
Fri 12:56:44 PM 40.3421 -75.8186 238° Southwest 321 369 20,000  Level FlightAware ADS-B
Fri 12:57:15 PM 40.3176 -75.8711 239° Southwest 321 369 20,000  Level FlightAware ADS-B
Fri 12:57:47 PM 40.2934 -75.9228 238° Southwest 321 369 20,000  Level FlightAware ADS-B
Fri 12:58:18 PM 40.2691 -75.9745 238° Southwest 320 368 20,000 -774 Level FlightAware ADS-B
Fri 12:58:49 PM 40.2456 -76.0245 238° Southwest 314 361 19,200 -1,780 Descending FlightAware ADS-B
Fri 12:59:49 PM 40.1998 -76.1221 238° Southwest 308 354 17,300 -1,319 Descending FlightAware ADS-B
Fri 01:00:20 PM 40.1766 -76.1709 238° Southwest 309 356 17,200 -95 Descending FlightAware ADS-B
Fri 01:00:52 PM 40.1527 -76.2212 238° Southwest 309 356 17,200  Level FlightAware ADS-B
Fri 01:01:26 PM 40.1273 -76.2748 238° Southwest 308 354 17,200  Level FlightAware ADS-B
Fri 01:01:59 PM 40.1029 -76.3268 238° Southwest 308 354 17,200  Level FlightAware ADS-B
Fri 01:02:31 PM 40.0790 -76.3790 239° Southwest 309 356 17,200  Level FlightAware ADS-B
Fri 01:03:16 PM 40.0480 -76.4470 239° Southwest 309 356 17,200 -141 Level FlightAware ADS-B
Fri 01:03:56 PM 40.0190 -76.5100 239° Southwest 310 357 17,000 -943 Descending FlightAware ADS-B
Fri 01:04:26 PM 39.9948 -76.5617 239° Southwest 303 349 16,100 -1,645 Descending FlightAware ADS-B
Fri 01:04:58 PM 39.9719 -76.6110 239° Southwest 298 343 15,300 -505 Descending FlightAware ADS-B
Fri 01:06:01 PM 39.9340 -76.6910 238° Southwest 303 349 15,300  Level FlightAware ADS-B
Fri 01:06:41 PM 39.9040 -76.7560 239° Southwest 300 345 15,300  Level FlightAware ADS-B
Fri 01:07:26 PM 39.8690 -76.8320 239° Southwest 292 336 15,300 -71 Level FlightAware ADS-B
Fri 01:08:06 PM 39.8370 -76.8999 238° Southwest 295 339 15,200 -846 Descending FlightAware ADS-B
Fri 01:08:44 PM 39.8105 -76.9562 239° Southwest 288 331 14,200 -1,520 Descending FlightAware ADS-B
Fri 01:09:21 PM 39.7910 -76.9970 238° Southwest 285 328 13,300 -1,750 Descending FlightAware ADS-B
Fri 01:09:56 PM 39.7640 -77.0560 239° Southwest 278 320 12,100 -1,725 Descending FlightAware ADS-B
Fri 01:10:41 PM 39.7370 -77.1130 238° Southwest 272 313 11,000 -1,000 Descending FlightAware ADS-B
Fri 01:15:56 PM 39.4700 -77.4270 222° Southwest 256 295 6,100 -997 Descending FlightAware ADS-B
Fri 01:16:36 PM 39.4160 -77.4290 182° South 262 302 5,100 -864 Descending FlightAware ADS-B
Fri 01:18:01 PM 39.3260 -77.4530 192° South 230 265 4,300 -436 Descending FlightAware ADS-B
Fri 01:18:26 PM 39.2990 -77.4540 182° South 232 267 4,300  Level FlightAware ADS-B
Fri 01:19:01 PM 39.2630 -77.4550 181° South 233 268 4,300  Level FlightAware ADS-B
Fri 01:19:31 PM 39.2330 -77.4550 180° South 234 269 4,300  Level FlightAware ADS-B
Fri 01:19:46 PM 39.2120 -77.4550 180° South 235 270 4,300  Level FlightAware ADS-B
Fri 01:20:26 PM 39.1720 -77.4560 181° South 210 242 4,300 -277 Level FlightAware ADS-B
Fri 01:20:51 PM 39.1500 -77.4570 182° South 206 237 4,000 -933 Descending FlightAware ADS-B
Fri 01:21:11 PM 39.1310 -77.4570 180° South 204 235 3,600 -1,200 Descending FlightAware ADS-B
Fri 01:21:41 PM 39.1000 -77.4570 180° South 206 237 3,000 -771 Descending FlightAware ADS-B
Fri 01:22:21 PM 39.0630 -77.4580 181° South 204 235 2,700 -1,152 Descending FlightAware ADS-B
Fri 01:23:20 PM 39.0167 -77.4667 181° South 155 178 1,100 -1,627 Descending Potomac TRACON

Login

Don't have an account? Register now (free) for customized features, flight alerts, and more!